createdAt,value
2022-12-14T00:00:10.755Z,33.50
2022-12-14T00:03:17.969Z,33.70
2022-12-14T00:06:25.126Z,33.80
2022-12-14T00:09:32.598Z,32.00
2022-12-14T00:12:39.547Z,30.30
2022-12-14T00:15:46.982Z,29.40
2022-12-14T00:18:54.179Z,31.80
2022-12-14T00:22:01.447Z,31.50
2022-12-14T00:25:08.584Z,30.00
2022-12-14T00:28:16.132Z,30.10
2022-12-14T00:31:23.782Z,31.90
2022-12-14T00:34:31.086Z,30.60
2022-12-14T00:37:38.436Z,35.20
2022-12-14T00:40:45.711Z,36.80
2022-12-14T00:43:52.617Z,33.10
2022-12-14T00:46:59.816Z,27.60
2022-12-14T00:50:07.366Z,29.80
2022-12-14T00:53:14.298Z,31.20
2022-12-14T00:56:21.868Z,28.10
2022-12-14T00:59:29.379Z,26.60
2022-12-14T01:02:36.277Z,29.90
2022-12-14T01:05:49.225Z,27.50
2022-12-14T01:08:46.310Z,26.80
2022-12-14T01:11:53.182Z,29.00
2022-12-14T01:15:00.774Z,25.30
2022-12-14T01:18:08.333Z,28.50
2022-12-14T01:21:15.736Z,28.60
2022-12-14T01:24:23.350Z,27.50
2022-12-14T01:27:48.078Z,23.70
2022-12-14T01:30:56.255Z,28.80
2022-12-14T01:34:04.023Z,29.80
2022-12-14T01:37:11.472Z,27.40
2022-12-14T01:40:18.920Z,27.10
2022-12-14T01:43:26.858Z,30.70
2022-12-14T01:46:35.280Z,25.20
2022-12-14T01:49:42.649Z,23.50
2022-12-14T01:52:50.739Z,24.90
2022-12-14T01:55:58.400Z,25.20
2022-12-14T01:59:05.611Z,25.40
2022-12-14T02:02:13.218Z,24.80
2022-12-14T02:05:21.163Z,22.40
2022-12-14T02:08:28.350Z,21.90
2022-12-14T02:11:36.133Z,23.80
2022-12-14T02:14:43.930Z,23.50
2022-12-14T02:17:51.072Z,24.20
2022-12-14T02:20:59.069Z,22.90
2022-12-14T02:24:06.572Z,23.50
2022-12-14T02:27:13.671Z,21.60
2022-12-14T02:30:21.755Z,23.10
2022-12-14T02:33:29.388Z,23.00
2022-12-14T02:36:37.538Z,23.80
2022-12-14T02:39:45.503Z,22.10
2022-12-14T02:42:52.713Z,23.90
2022-12-14T02:46:00.548Z,23.50
2022-12-14T02:49:07.975Z,23.40
2022-12-14T02:52:15.542Z,23.80
2022-12-14T02:55:23.362Z,25.50
2022-12-14T02:58:30.941Z,22.50
2022-12-14T03:01:38.950Z,20.10
2022-12-14T03:04:47.041Z,22.30
2022-12-14T03:07:54.623Z,19.40
2022-12-14T03:11:02.036Z,23.70
2022-12-14T03:14:09.449Z,24.20
2022-12-14T03:17:19.625Z,24.40
2022-12-14T03:20:27.423Z,26.80
2022-12-14T03:23:34.969Z,23.80
2022-12-14T03:26:47.210Z,28.20
2022-12-14T03:29:44.373Z,26.00
2022-12-14T03:32:51.555Z,24.20
2022-12-14T03:35:59.388Z,27.10
2022-12-14T03:39:06.525Z,27.30
2022-12-14T03:42:14.246Z,26.50
2022-12-14T03:45:22.043Z,22.70
2022-12-14T03:48:29.248Z,24.70
2022-12-14T03:51:36.934Z,25.40
2022-12-14T03:54:44.130Z,22.60
2022-12-14T03:57:51.748Z,23.70
2022-12-14T04:00:59.601Z,25.20
2022-12-14T04:04:06.786Z,26.10
2022-12-14T04:07:14.745Z,24.60
2022-12-14T04:10:22.168Z,24.40
2022-12-14T04:13:30.132Z,22.00
2022-12-14T04:16:37.811Z,22.90
2022-12-14T04:18:55.692Z,23.10
2022-12-14T04:22:00.484Z,22.50
2022-12-14T04:25:07.755Z,24.70
2022-12-14T04:28:15.347Z,25.80
2022-12-14T04:31:22.861Z,23.80
2022-12-14T04:34:30.070Z,22.30
2022-12-14T04:37:37.971Z,22.20
2022-12-14T04:40:45.342Z,22.90
2022-12-14T04:43:52.754Z,26.10
2022-12-14T04:47:00.647Z,23.00
2022-12-14T04:50:07.944Z,19.70
2022-12-14T04:53:15.417Z,22.70
2022-12-14T04:56:23.226Z,23.30
2022-12-14T04:59:30.467Z,19.40
2022-12-14T05:02:38.238Z,18.20
2022-12-14T05:05:45.647Z,19.50
2022-12-14T05:08:53.235Z,19.60
2022-12-14T05:12:00.889Z,20.70
2022-12-14T05:15:09.378Z,20.30
2022-12-14T05:18:16.935Z,19.10
2022-12-14T05:21:24.694Z,19.60
2022-12-14T05:24:32.098Z,19.70
2022-12-14T05:27:39.615Z,20.40
2022-12-14T05:30:49.240Z,19.50
2022-12-14T05:33:56.826Z,20.30
2022-12-14T05:37:04.348Z,19.90
2022-12-14T05:40:12.031Z,16.50
2022-12-14T05:43:19.934Z,17.70
2022-12-14T05:46:27.438Z,18.40
2022-12-14T05:49:34.840Z,22.60
2022-12-14T05:52:42.484Z,18.60
2022-12-14T05:55:49.974Z,18.60
2022-12-14T05:58:57.739Z,15.70
2022-12-14T06:02:05.701Z,18.20
2022-12-14T06:05:12.969Z,16.40
2022-12-14T06:08:20.929Z,13.40
2022-12-14T06:11:28.677Z,16.40
2022-12-14T06:14:35.832Z,15.50
2022-12-14T06:17:43.855Z,16.40
2022-12-14T06:20:51.346Z,17.40
2022-12-14T06:23:58.743Z,15.90
2022-12-14T06:27:06.493Z,17.40
2022-12-14T06:30:14.112Z,19.20
2022-12-14T06:33:21.725Z,15.50
2022-12-14T06:36:29.112Z,12.70
2022-12-14T06:39:36.699Z,15.30
2022-12-14T06:42:44.705Z,14.30
2022-12-14T06:45:52.305Z,14.70
2022-12-14T06:48:59.481Z,16.40
2022-12-14T06:52:06.790Z,15.60
2022-12-14T06:55:13.991Z,14.70
2022-12-14T06:58:21.589Z,15.90
2022-12-14T07:01:29.307Z,15.70
2022-12-14T07:04:36.766Z,17.50
2022-12-14T07:07:44.268Z,16.70
2022-12-14T07:10:51.287Z,16.70
2022-12-14T07:13:59.041Z,16.50
2022-12-14T07:17:06.650Z,13.80
2022-12-14T07:20:13.689Z,13.70
2022-12-14T07:23:26.295Z,12.60
2022-12-14T07:26:25.129Z,13.80
2022-12-14T07:29:34.792Z,12.20
2022-12-14T07:32:43.068Z,15.30
2022-12-14T07:35:50.575Z,14.70
2022-12-14T07:38:58.111Z,14.70
2022-12-14T07:42:05.803Z,17.50
2022-12-14T07:45:13.513Z,15.70
2022-12-14T07:48:20.929Z,15.60
2022-12-14T07:51:28.778Z,16.80
2022-12-14T07:54:36.553Z,18.20
2022-12-14T07:57:44.491Z,14.10
2022-12-14T08:00:52.002Z,15.70
2022-12-14T08:03:59.614Z,15.40
2022-12-14T08:07:07.003Z,17.90
2022-12-14T08:10:14.684Z,18.50
2022-12-14T08:13:22.273Z,15.30
2022-12-14T08:16:30.013Z,12.80
2022-12-14T08:19:37.482Z,12.80
2022-12-14T08:22:45.551Z,11.70
2022-12-14T08:25:52.871Z,12.30
2022-12-14T08:29:00.781Z,10.20
2022-12-14T08:32:08.572Z,16.30
2022-12-14T08:35:15.687Z,10.40
2022-12-14T08:38:23.486Z,12.30
2022-12-14T08:41:31.459Z,10.00
2022-12-14T08:44:38.614Z,11.90
2022-12-14T08:47:46.411Z,12.20
2022-12-14T08:50:53.977Z,13.90
2022-12-14T08:54:01.587Z,13.20
2022-12-14T08:57:09.322Z,13.70
2022-12-14T09:00:16.964Z,12.30
2022-12-14T09:03:24.500Z,11.60
2022-12-14T09:06:32.781Z,11.70
2022-12-14T09:09:40.287Z,14.30
2022-12-14T09:12:47.858Z,14.50
2022-12-14T09:15:55.285Z,15.60
2022-12-14T09:19:03.145Z,12.90
2022-12-14T09:22:10.707Z,14.20
2022-12-14T09:25:18.274Z,15.00
2022-12-14T09:28:26.370Z,14.90
2022-12-14T09:31:33.684Z,13.60
2022-12-14T09:34:41.172Z,15.40
2022-12-14T09:37:49.069Z,14.00
2022-12-14T09:40:56.113Z,16.10
2022-12-14T09:44:03.997Z,14.90
2022-12-14T09:47:12.109Z,15.80
2022-12-14T09:50:19.576Z,15.00
2022-12-14T09:53:28.024Z,14.80
2022-12-14T09:56:36.039Z,17.30
2022-12-14T09:59:43.406Z,16.60
2022-12-14T10:02:51.233Z,15.60
2022-12-14T10:05:58.476Z,16.60
2022-12-14T10:09:06.268Z,18.40
2022-12-14T10:12:14.006Z,16.50
2022-12-14T10:15:21.219Z,17.20
2022-12-14T10:21:34.293Z,16.30
2022-12-14T10:24:41.600Z,18.60
2022-12-14T10:28:09.768Z,16.30
2022-12-14T10:30:54.386Z,15.30
2022-12-14T10:34:01.981Z,18.10
2022-12-14T10:37:09.455Z,17.30
2022-12-14T10:40:27.511Z,17.10
2022-12-14T10:43:22.006Z,14.70
2022-12-14T10:46:29.639Z,16.50
2022-12-14T10:49:37.292Z,17.40
2022-12-14T10:52:45.408Z,18.30
2022-12-14T10:55:52.585Z,17.10
2022-12-14T10:59:00.361Z,16.50
2022-12-14T11:02:08.268Z,15.10
2022-12-14T11:05:15.890Z,17.00
2022-12-14T11:08:23.744Z,18.50
2022-12-14T11:11:30.973Z,16.20
2022-12-14T11:14:38.793Z,16.20
2022-12-14T11:17:46.869Z,17.30
2022-12-14T11:20:53.938Z,20.00
2022-12-14T11:24:01.764Z,18.50
2022-12-14T11:27:09.986Z,19.60
2022-12-14T11:30:17.043Z,20.50
2022-12-14T11:33:24.548Z,18.70
2022-12-14T11:36:31.792Z,22.80
2022-12-14T11:39:39.049Z,23.20
2022-12-14T11:42:46.302Z,23.70
2022-12-14T11:45:53.676Z,20.60
2022-12-14T11:49:01.541Z,23.20
2022-12-14T11:52:09.069Z,21.50
2022-12-14T11:55:20.282Z,21.10
2022-12-14T11:58:19.928Z,21.50
2022-12-14T12:01:27.513Z,26.30
2022-12-14T12:04:35.399Z,23.50
2022-12-14T12:07:42.797Z,26.80
2022-12-14T12:10:50.767Z,24.40
2022-12-14T12:13:58.727Z,21.10
2022-12-14T12:17:06.429Z,21.30
2022-12-14T12:20:13.934Z,25.90
2022-12-14T12:23:21.608Z,22.40
2022-12-14T12:26:28.681Z,26.60
2022-12-14T12:29:36.367Z,23.30
2022-12-14T12:32:44.152Z,25.50
2022-12-14T12:35:46.323Z,25.70
2022-12-14T12:38:53.970Z,26.50
2022-12-14T12:42:05.212Z,28.80
2022-12-14T12:45:02.609Z,25.00
2022-12-14T12:48:09.993Z,26.00
2022-12-14T12:51:17.449Z,25.90
2022-12-14T12:54:25.160Z,25.20
2022-12-14T12:57:32.402Z,25.60
2022-12-14T13:00:39.870Z,30.50
2022-12-14T13:03:47.675Z,28.90
2022-12-14T13:06:54.687Z,28.00
2022-12-14T13:10:05.960Z,29.70
2022-12-14T13:13:03.007Z,30.60
2022-12-14T13:16:09.978Z,28.20
2022-12-14T13:19:48.919Z,30.40
2022-12-14T13:22:22.686Z,30.90
2022-12-14T13:25:30.445Z,32.20
2022-12-14T13:28:38.034Z,29.60
2022-12-14T13:31:45.304Z,30.20
2022-12-14T13:34:52.731Z,30.40
2022-12-14T13:38:00.385Z,29.90
2022-12-14T13:41:07.828Z,27.60
2022-12-14T13:44:15.375Z,26.40
2022-12-14T13:47:22.923Z,28.90
2022-12-14T13:50:41.030Z,29.50
2022-12-14T13:53:35.377Z,28.20
2022-12-14T13:56:42.856Z,30.10
2022-12-14T13:59:50.733Z,28.50
2022-12-14T14:02:58.191Z,29.40
2022-12-14T14:06:05.501Z,28.40
2022-12-14T14:09:13.421Z,26.20
2022-12-14T14:12:20.675Z,27.50
2022-12-14T14:15:28.493Z,29.40
2022-12-14T14:18:36.368Z,29.20
2022-12-14T14:22:06.035Z,29.00
2022-12-14T14:24:48.686Z,29.50
2022-12-14T14:27:56.702Z,32.80
2022-12-14T14:31:04.061Z,31.90
2022-12-14T14:34:11.524Z,30.30
2022-12-14T14:37:18.890Z,33.00
2022-12-14T14:40:50.928Z,28.60
2022-12-14T14:43:31.380Z,33.60
2022-12-14T14:46:39.025Z,34.40
2022-12-14T14:49:46.764Z,34.40
2022-12-14T14:52:54.063Z,36.20
2022-12-14T14:56:02.058Z,37.10
2022-12-14T14:59:09.375Z,34.50
2022-12-14T15:02:16.807Z,35.90
2022-12-14T15:08:29.973Z,36.60
2022-12-14T15:11:37.720Z,33.30
2022-12-14T15:14:48.770Z,34.80
2022-12-14T15:17:45.475Z,36.60
2022-12-14T15:20:53.638Z,36.60
2022-12-14T15:24:01.531Z,35.60
2022-12-14T15:27:08.525Z,44.10
2022-12-14T15:30:15.816Z,39.00
2022-12-14T15:33:23.124Z,39.10
2022-12-14T15:36:30.795Z,37.30
2022-12-14T15:39:38.714Z,38.70
2022-12-14T15:42:46.272Z,37.70
2022-12-14T15:45:54.112Z,43.60
2022-12-14T15:49:02.055Z,39.30
2022-12-14T15:52:09.341Z,42.40
2022-12-14T15:55:16.889Z,39.70
2022-12-14T15:58:24.259Z,41.40
2022-12-14T16:01:32.308Z,44.00
2022-12-14T16:04:39.813Z,42.90
2022-12-14T16:07:47.366Z,45.10
2022-12-14T16:10:55.349Z,41.90
2022-12-14T16:14:02.902Z,41.00
2022-12-14T16:17:10.389Z,40.90
2022-12-14T16:20:18.146Z,46.40
2022-12-14T16:23:25.403Z,46.50
2022-12-14T16:26:33.238Z,44.30
2022-12-14T16:29:48.080Z,45.70
2022-12-14T16:32:48.013Z,50.10
2022-12-14T16:35:47.516Z,52.20
2022-12-14T16:38:55.141Z,52.80
2022-12-14T16:42:02.822Z,55.60
2022-12-14T16:45:10.644Z,58.20
2022-12-14T16:48:18.142Z,69.30
2022-12-14T16:51:50.963Z,59.10
2022-12-14T16:54:30.897Z,55.60
2022-12-14T16:57:38.310Z,52.20
2022-12-14T17:00:45.509Z,60.10
2022-12-14T17:03:53.065Z,58.10
2022-12-14T17:07:00.742Z,53.50
2022-12-14T17:10:08.247Z,53.00
2022-12-14T17:13:15.646Z,48.60
2022-12-14T17:16:23.643Z,47.20
2022-12-14T17:19:31.038Z,50.60
2022-12-14T17:22:38.546Z,50.90
2022-12-14T17:25:48.136Z,54.60
2022-12-14T17:28:55.340Z,54.20
2022-12-14T17:32:03.120Z,71.80
2022-12-14T17:35:11.268Z,67.70
2022-12-14T17:38:18.478Z,73.80
2022-12-14T17:41:26.524Z,73.40
2022-12-14T17:44:34.444Z,69.10
2022-12-14T17:47:41.544Z,64.10
2022-12-14T17:50:49.178Z,61.20
2022-12-14T17:53:56.719Z,53.50
2022-12-14T17:57:04.207Z,67.70
2022-12-14T18:00:12.038Z,75.30
2022-12-14T18:03:19.664Z,70.60
2022-12-14T18:06:27.160Z,68.60
2022-12-14T18:09:35.199Z,69.10
2022-12-14T18:12:42.747Z,61.60
2022-12-14T18:15:50.708Z,67.10
2022-12-14T18:18:58.007Z,68.80
2022-12-14T18:22:05.641Z,63.00
2022-12-14T18:25:12.889Z,59.00
2022-12-14T18:28:21.280Z,55.80
2022-12-14T18:31:29.043Z,57.70
2022-12-14T18:34:36.331Z,58.60
2022-12-14T18:37:43.590Z,61.90
2022-12-14T18:40:47.723Z,59.50
2022-12-14T18:43:46.198Z,56.50
2022-12-14T18:46:53.768Z,58.50
2022-12-14T18:50:01.369Z,59.40
2022-12-14T18:53:08.558Z,58.20
2022-12-14T18:56:15.992Z,54.20
2022-12-14T18:59:23.419Z,51.00
2022-12-14T19:02:31.826Z,55.00
2022-12-14T19:05:39.438Z,53.60
2022-12-14T19:08:46.685Z,53.60
2022-12-14T19:11:56.853Z,53.10
2022-12-14T19:15:04.299Z,52.00
2022-12-14T19:18:11.853Z,55.00
2022-12-14T19:21:19.703Z,53.40
2022-12-14T19:24:27.487Z,51.50
2022-12-14T19:28:15.108Z,51.70
2022-12-14T19:30:39.573Z,57.60
2022-12-14T19:33:47.173Z,59.70
2022-12-14T19:36:54.955Z,53.00
2022-12-14T19:40:02.508Z,52.50
2022-12-14T19:43:10.101Z,55.50
2022-12-14T19:46:17.727Z,56.20
2022-12-14T19:49:24.934Z,59.50
2022-12-14T19:52:32.981Z,55.10
2022-12-14T19:55:40.711Z,53.60
2022-12-14T19:58:47.763Z,58.00
2022-12-14T20:01:55.862Z,56.30
2022-12-14T20:05:03.602Z,54.70
2022-12-14T20:08:10.617Z,55.50
2022-12-14T20:11:18.231Z,56.30
2022-12-14T20:14:26.244Z,56.40
2022-12-14T20:17:33.589Z,56.70
2022-12-14T20:20:41.035Z,55.20
2022-12-14T20:23:48.544Z,59.10
2022-12-14T20:26:56.447Z,57.40
2022-12-14T20:30:05.105Z,57.00
2022-12-14T20:33:12.801Z,61.90
2022-12-14T20:36:20.950Z,65.20
2022-12-14T20:39:31.221Z,68.40
2022-12-14T20:42:38.985Z,68.00
2022-12-14T20:45:46.747Z,69.10
2022-12-14T20:48:54.435Z,67.90
2022-12-14T20:52:02.174Z,62.70
2022-12-14T20:55:09.874Z,55.80
2022-12-14T20:58:17.520Z,58.70
2022-12-14T21:01:25.513Z,55.20
2022-12-14T21:04:33.208Z,55.60
2022-12-14T21:07:40.687Z,55.30
2022-12-14T21:10:48.189Z,63.40
2022-12-14T21:13:55.347Z,61.00
2022-12-14T21:17:04.107Z,59.00
2022-12-14T21:20:11.786Z,56.20
2022-12-14T21:23:18.876Z,55.30
2022-12-14T21:26:26.897Z,57.70
2022-12-14T21:29:35.127Z,54.90
2022-12-14T21:32:42.274Z,55.50
2022-12-14T21:35:49.919Z,55.60
2022-12-14T21:38:57.425Z,57.60
2022-12-14T21:42:04.595Z,58.00
2022-12-14T21:45:12.433Z,57.90
2022-12-14T21:48:19.929Z,60.00
2022-12-14T21:51:27.753Z,55.40
2022-12-14T21:54:35.553Z,59.50
2022-12-14T21:57:49.421Z,50.70
2022-12-14T22:00:46.956Z,45.30
2022-12-14T22:03:54.535Z,47.70
2022-12-14T22:07:02.160Z,50.00
2022-12-14T22:10:09.425Z,50.00
2022-12-14T22:13:17.529Z,46.90
2022-12-14T22:16:25.120Z,47.10
2022-12-14T22:19:32.310Z,45.90
2022-12-14T22:22:39.936Z,45.10
2022-12-14T22:25:47.451Z,56.30
2022-12-14T22:28:54.801Z,56.70
2022-12-14T22:32:02.723Z,48.70
2022-12-14T22:35:10.196Z,51.60
2022-12-14T22:38:17.523Z,47.00
2022-12-14T22:41:25.439Z,52.80
2022-12-14T22:44:32.817Z,57.30
2022-12-14T22:47:40.706Z,55.50
2022-12-14T22:50:48.628Z,58.20
2022-12-14T22:53:55.698Z,54.00
2022-12-14T22:57:03.495Z,50.10
2022-12-14T23:00:11.895Z,52.90
2022-12-14T23:03:19.188Z,48.50
2022-12-14T23:06:27.346Z,45.20
2022-12-14T23:09:35.135Z,43.70
2022-12-14T23:12:42.364Z,46.40
2022-12-14T23:15:50.411Z,52.90
2022-12-14T23:18:57.725Z,42.60
2022-12-14T23:22:05.026Z,50.10
2022-12-14T23:25:12.522Z,42.90
2022-12-14T23:28:19.970Z,40.80
2022-12-14T23:31:28.040Z,45.40
2022-12-14T23:34:35.349Z,41.60
2022-12-14T23:37:43.284Z,43.50
2022-12-14T23:40:51.345Z,42.00
2022-12-14T23:43:58.562Z,48.20
2022-12-14T23:47:06.379Z,42.80
2022-12-14T23:50:14.290Z,43.10
2022-12-14T23:53:21.633Z,46.10
2022-12-14T23:56:29.560Z,43.90
2022-12-14T23:59:37.222Z,42.00
